Time;durP1;ratioP1;P1;durP2;ratioP2;P2;SDS_P1;SDS_P2;PMS_P1;PMS_P2;Temp;Humidity;BMP_temperature;BMP_pressure;BME280_temperature;BME280_humidity;BME280_pressure;Samples;Min_cycle;Max_cycle;Signal;HPM_P1;HPM_P2
2022/02/17 00:00:09;;;;;;;24.50;22.60;;;12.90;99.90;;;;;;5038309;28;20464;-71
2022/02/17 00:02:36;;;;;;;22.80;21.47;;;12.60;99.90;;;;;;5040466;28;20533;-71
2022/02/17 00:05:20;;;;;;;23.97;22.43;;;12.40;99.90;;;;;;5040207;28;20499;-72
2022/02/17 00:07:48;;;;;;;24.17;22.47;;;12.30;99.90;;;;;;5031182;28;20936;-71
2022/02/17 00:10:16;;;;;;;22.23;20.57;;;12.30;99.90;;;;;;5032384;28;20468;-73
2022/02/17 00:12:43;;;;;;;21.60;20.30;;;12.30;99.90;;;;;;5038486;28;20486;-71
2022/02/17 00:15:10;;;;;;;21.27;19.80;;;12.40;99.90;;;;;;5030850;28;20457;-71
2022/02/17 00:17:39;;;;;;;21.17;19.70;;;12.40;99.90;;;;;;5035311;28;21017;-70
2022/02/17 00:20:09;;;;;;;20.10;18.90;;;12.40;99.90;;;;;;5033303;28;20498;-71
2022/02/17 00:22:36;;;;;;;19.13;17.97;;;12.40;99.90;;;;;;5035874;28;20543;-70
2022/02/17 00:25:04;;;;;;;18.27;16.97;;;12.40;99.90;;;;;;5036856;28;20459;-69
2022/02/17 00:27:32;;;;;;;17.07;15.97;;;12.50;99.90;;;;;;5041285;28;20471;-71
2022/02/17 00:29:59;;;;;;;17.17;16.17;;;12.50;99.90;;;;;;5036706;28;20494;-71
2022/02/17 00:32:26;;;;;;;16.60;15.50;;;12.50;99.90;;;;;;5042428;28;20583;-70
2022/02/17 00:34:54;;;;;;;16.10;15.20;;;12.60;99.90;;;;;;5042240;28;20461;-70
2022/02/17 00:37:22;;;;;;;15.90;15.00;;;12.60;99.90;;;;;;5042859;28;20463;-70
2022/02/17 00:39:48;;;;;;;16.37;15.47;;;12.60;99.90;;;;;;5038980;28;20468;-71
2022/02/17 00:42:16;;;;;;;16.90;15.70;;;12.60;99.90;;;;;;5036862;28;20917;-71
2022/02/17 00:44:44;;;;;;;16.43;15.50;;;12.60;99.90;;;;;;5040234;28;20513;-71
2022/02/17 00:47:12;;;;;;;16.93;15.80;;;12.60;99.90;;;;;;5040146;28;20471;-71
2022/02/17 00:49:39;;;;;;;16.20;15.30;;;12.60;99.90;;;;;;5036481;28;20463;-71
2022/02/17 00:52:07;;;;;;;16.17;15.27;;;12.60;99.90;;;;;;5042170;28;21206;-71
2022/02/17 00:54:36;;;;;;;17.33;16.23;;;12.70;99.90;;;;;;5039520;28;20464;-70
2022/02/17 00:57:04;;;;;;;16.57;15.30;;;12.70;99.90;;;;;;5038145;28;20546;-70
2022/02/17 00:59:31;;;;;;;16.40;15.33;;;12.70;99.90;;;;;;5039058;28;20461;-73
2022/02/17 01:01:58;;;;;;;15.20;14.30;;;12.70;99.90;;;;;;5036214;28;20474;-70
2022/02/17 01:04:25;;;;;;;14.90;14.00;;;12.90;99.90;;;;;;5041873;28;20479;-70
2022/02/17 01:07:07;;;;;;;14.97;14.07;;;12.90;99.90;;;;;;5042557;28;20463;-71
2022/02/17 01:09:36;;;;;;;17.93;16.50;;;12.90;99.90;;;;;;5038754;28;20463;-69
2022/02/17 01:12:04;;;;;;;21.90;19.63;;;12.70;99.90;;;;;;5040664;28;20887;-70
2022/02/17 01:14:31;;;;;;;20.40;19.10;;;12.40;99.90;;;;;;5037046;28;21170;-73
2022/02/17 01:16:58;;;;;;;19.50;18.27;;;12.20;99.90;;;;;;5034839;28;20885;-71
2022/02/17 01:19:25;;;;;;;18.63;17.53;;;12.20;99.90;;;;;;5035337;28;20461;-71
2022/02/17 01:21:52;;;;;;;18.03;16.90;;;12.10;99.90;;;;;;5043110;28;20988;-71
2022/02/17 01:24:19;;;;;;;18.13;16.70;;;12.10;99.90;;;;;;5038609;28;20464;-71
2022/02/17 01:26:48;;;;;;;17.63;16.20;;;12.10;99.90;;;;;;5036748;28;20998;-70
2022/02/17 01:29:15;;;;;;;17.10;15.90;;;12.20;99.90;;;;;;5040767;28;20852;-71
2022/02/17 01:31:42;;;;;;;18.10;16.30;;;12.20;99.90;;;;;;5045583;28;20467;-71
2022/02/17 01:34:09;;;;;;;16.87;15.47;;;12.30;99.90;;;;;;5046139;28;20468;-70
2022/02/17 01:36:36;;;;;;;19.20;17.53;;;12.40;99.90;;;;;;5042928;28;20474;-71
2022/02/17 01:39:04;;;;;;;19.63;18.13;;;12.30;99.90;;;;;;5043938;28;20456;-69
2022/02/17 01:41:31;;;;;;;18.30;17.17;;;12.10;99.90;;;;;;5040673;28;20470;-71
2022/02/17 01:44:02;;;;;;;18.50;17.07;;;12.00;99.90;;;;;;5042923;28;21024;-70
2022/02/17 01:46:35;;;;;;;20.30;18.33;;;12.10;99.90;;;;;;5038348;28;20471;-70
2022/02/17 01:49:03;;;;;;;19.47;18.00;;;12.10;99.90;;;;;;5034192;28;20456;-70
2022/02/17 01:51:30;;;;;;;21.23;17.07;;;12.20;99.90;;;;;;5047547;28;20491;-72
2022/02/17 01:53:57;;;;;;;21.50;16.97;;;12.30;99.90;;;;;;5039937;28;20491;-70
2022/02/17 01:56:24;;;;;;;17.97;16.27;;;12.40;99.90;;;;;;5039171;28;20459;-71
2022/02/17 01:58:52;;;;;;;16.80;15.43;;;12.40;99.90;;;;;;5044015;28;20464;-70
2022/02/17 02:01:22;;;;;;;17.53;16.00;;;12.40;99.90;;;;;;5041386;28;20468;-72
2022/02/17 02:03:49;;;;;;;17.23;15.67;;;12.40;99.90;;;;;;5044123;28;21298;-71
2022/02/17 02:06:16;;;;;;;16.87;15.37;;;12.30;99.90;;;;;;5043417;28;20525;-70
2022/02/17 02:08:43;;;;;;;17.10;15.60;;;12.40;99.90;;;;;;5041948;28;20495;-72
2022/02/17 02:11:10;;;;;;;18.97;16.93;;;12.40;99.90;;;;;;5042181;28;20475;-71
2022/02/17 02:13:38;;;;;;;17.10;15.57;;;12.50;99.90;;;;;;5036814;28;20460;-70
2022/02/17 02:16:06;;;;;;;19.50;17.27;;;12.40;99.90;;;;;;5044523;28;20467;-72
2022/02/17 02:18:34;;;;;;;18.70;16.60;;;12.30;99.90;;;;;;5045682;28;20484;-72
2022/02/17 02:21:04;;;;;;;18.67;16.60;;;12.30;99.90;;;;;;5044301;28;20970;-71
2022/02/17 02:23:30;;;;;;;26.70;16.57;;;12.30;99.90;;;;;;5036211;28;20490;-71
2022/02/17 02:25:57;;;;;;;23.37;17.30;;;12.20;99.90;;;;;;5040777;28;20460;-71
2022/02/17 02:28:27;;;;;;;22.60;17.80;;;12.20;99.90;;;;;;5044499;28;20461;-70
2022/02/17 02:30:54;;;;;;;32.57;17.40;;;12.10;99.90;;;;;;5046272;28;20451;-71
2022/02/17 02:33:22;;;;;;;19.20;17.37;;;12.10;99.90;;;;;;5037471;28;20472;-72
2022/02/17 02:35:50;;;;;;;21.80;16.10;;;12.20;99.90;;;;;;5043293;28;20468;-71
2022/02/17 02:38:19;;;;;;;17.30;15.73;;;12.10;99.90;;;;;;5033964;28;20475;-72
2022/02/17 02:40:47;;;;;;;19.43;17.70;;;12.00;99.90;;;;;;5044502;28;20473;-72
2022/02/17 02:43:14;;;;;;;19.00;17.40;;;12.00;99.90;;;;;;5042758;28;20480;-71
2022/02/17 02:45:43;;;;;;;19.00;17.00;;;12.10;99.90;;;;;;5039433;28;20826;-71
2022/02/17 02:48:11;;;;;;;20.10;17.00;;;12.00;99.90;;;;;;5041542;28;20878;-70
2022/02/17 02:50:39;;;;;;;19.40;16.77;;;11.90;99.90;;;;;;5033819;28;20465;-73
2022/02/17 02:53:06;;;;;;;21.20;18.40;;;11.80;99.90;;;;;;5041523;28;20464;-71
2022/02/17 02:55:34;;;;;;;26.40;16.93;;;11.90;99.90;;;;;;5042737;28;20464;-73
2022/02/17 02:58:01;;;;;;;18.27;16.43;;;11.90;99.90;;;;;;5042122;28;20464;-71
2022/02/17 03:00:29;;;;;;;18.63;16.77;;;11.80;99.90;;;;;;5041538;28;20466;-71
2022/02/17 03:02:56;;;;;;;20.80;17.93;;;11.80;99.90;;;;;;5039348;28;20851;-70
2022/02/17 03:05:22;;;;;;;20.00;17.53;;;11.80;99.90;;;;;;5036293;28;20471;-72
2022/02/17 03:07:50;;;;;;;22.63;17.87;;;11.90;99.90;;;;;;5033280;28;20469;-72
2022/02/17 03:10:16;;;;;;;25.20;18.70;;;11.80;99.90;;;;;;5042128;28;20472;-72
2022/02/17 03:12:45;;;;;;;27.63;17.13;;;11.80;99.90;;;;;;5036208;28;20952;-72
2022/02/17 03:15:13;;;;;;;18.43;16.70;;;11.70;99.90;;;;;;5045541;28;20539;-71
2022/02/17 03:17:40;;;;;;;25.23;17.80;;;11.70;99.90;;;;;;5042518;28;20497;-73
2022/02/17 03:20:08;;;;;;;25.10;16.47;;;11.60;99.90;;;;;;5037080;28;21179;-71
2022/02/17 03:22:36;;;;;;;22.93;17.60;;;11.60;99.90;;;;;;5035374;28;20463;-71
2022/02/17 03:25:04;;;;;;;21.30;17.27;;;11.60;99.90;;;;;;5041603;28;20511;-71
2022/02/17 03:27:31;;;;;;;19.80;17.93;;;11.60;99.90;;;;;;5038409;28;20562;-73
2022/02/17 03:29:59;;;;;;;21.43;17.37;;;11.60;99.90;;;;;;5036399;28;20471;-71
2022/02/17 03:32:26;;;;;;;24.67;17.37;;;11.50;99.90;;;;;;5042084;28;20460;-73
2022/02/17 03:34:53;;;;;;;21.43;16.80;;;11.50;99.90;;;;;;5044875;28;20463;-72
2022/02/17 03:37:20;;;;;;;22.23;18.40;;;11.40;99.90;;;;;;5032188;28;20461;-70
2022/02/17 03:39:48;;;;;;;24.60;16.77;;;11.40;99.90;;;;;;5037433;28;20464;-71
2022/02/17 03:42:16;;;;;;;23.23;18.07;;;11.50;99.90;;;;;;5036680;28;20975;-70
2022/02/17 03:44:43;;;;;;;22.20;17.93;;;11.40;99.90;;;;;;5040259;28;20499;-71
2022/02/17 03:47:12;;;;;;;31.30;17.63;;;11.40;99.90;;;;;;5040010;28;21191;-71
2022/02/17 03:49:39;;;;;;;19.63;17.73;;;11.30;99.90;;;;;;5041313;28;20887;-71
2022/02/17 03:52:07;;;;;;;21.63;17.23;;;11.30;99.90;;;;;;5034510;28;20476;-70
2022/02/17 03:54:34;;;;;;;17.67;16.13;;;11.30;99.90;;;;;;5039537;28;20471;-73
2022/02/17 03:57:01;;;;;;;24.60;18.30;;;11.20;99.90;;;;;;5042813;28;21421;-71
2022/02/17 03:59:28;;;;;;;20.63;17.90;;;11.20;99.90;;;;;;5040461;28;20461;-71
2022/02/17 04:01:55;;;;;;;26.63;17.20;;;11.20;99.90;;;;;;5041655;28;20464;-71
2022/02/17 04:04:23;;;;;;;22.63;17.23;;;11.30;99.90;;;;;;5039532;28;20496;-71
2022/02/17 04:06:49;;;;;;;19.10;17.33;;;11.20;99.90;;;;;;5041470;28;20478;-70
2022/02/17 04:09:16;;;;;;;17.40;15.60;;;11.20;99.90;;;;;;5036394;28;20487;-70
2022/02/17 04:11:44;;;;;;;30.80;17.67;;;11.20;99.90;;;;;;5041753;28;20460;-71
2022/02/17 04:14:10;;;;;;;26.13;18.07;;;11.20;99.90;;;;;;5035149;28;20991;-71
2022/02/17 04:16:38;;;;;;;28.07;17.53;;;11.20;99.90;;;;;;5039013;28;20482;-71
2022/02/17 04:19:05;;;;;;;23.87;17.37;;;11.10;99.90;;;;;;5038296;28;20456;-69
2022/02/17 04:21:34;;;;;;;20.10;17.10;;;11.10;99.90;;;;;;5041829;28;20555;-70
2022/02/17 04:24:00;;;;;;;29.90;17.80;;;11.00;99.90;;;;;;5045210;28;20946;-70
2022/02/17 04:26:27;;;;;;;20.87;18.70;;;11.10;99.90;;;;;;5042531;28;20466;-70
2022/02/17 04:28:55;;;;;;;22.23;17.47;;;11.00;99.90;;;;;;5038015;28;20460;-71
2022/02/17 04:31:22;;;;;;;26.10;18.77;;;11.10;99.90;;;;;;5040700;28;20692;-72
2022/02/17 04:33:49;;;;;;;20.30;16.70;;;11.10;99.90;;;;;;5043332;28;20469;-71
2022/02/17 04:36:16;;;;;;;22.37;16.23;;;11.00;99.90;;;;;;5040984;28;20472;-71
2022/02/17 04:38:45;;;;;;;23.00;17.53;;;11.00;99.90;;;;;;5041673;28;20890;-72
2022/02/17 04:43:57;;;;;;;31.87;19.03;;;10.90;99.90;;;;;;5033777;28;20495;-72
2022/02/17 04:46:24;;;;;;;19.60;17.60;;;10.90;99.90;;;;;;5037995;28;20970;-71
2022/02/17 04:48:51;;;;;;;39.70;18.80;;;10.90;99.90;;;;;;5035265;28;20872;-71
2022/02/17 04:51:18;;;;;;;34.37;18.07;;;10.80;99.90;;;;;;5042479;28;20468;-70
2022/02/17 04:53:46;;;;;;;28.63;18.67;;;10.80;99.90;;;;;;5038930;28;20836;-71
2022/02/17 04:56:13;;;;;;;19.43;16.10;;;10.80;99.90;;;;;;5033757;28;20457;-71
2022/02/17 04:58:40;;;;;;;24.37;17.30;;;10.80;99.90;;;;;;5034691;28;20992;-71
2022/02/17 05:01:07;;;;;;;27.20;21.67;;;10.80;99.90;;;;;;5009017;28;21118;-69
2022/02/17 05:03:34;;;;;;;36.47;27.80;;;10.70;99.90;;;;;;5008083;28;20489;-69
2022/02/17 05:06:02;;;;;;;41.63;27.53;;;10.20;99.90;;;;;;5009407;28;20459;-70
2022/02/17 05:08:29;;;;;;;34.27;24.73;;;9.90;99.90;;;;;;5010536;28;20460;-70
2022/02/17 05:10:57;;;;;;;31.43;23.70;;;9.80;99.90;;;;;;5009731;28;20464;-71
2022/02/17 05:13:24;;;;;;;27.20;21.23;;;9.80;99.90;;;;;;5042472;28;20462;-70
2022/02/17 05:15:51;;;;;;;24.40;21.83;;;9.80;99.90;;;;;;5023444;28;20569;-70
2022/02/17 05:18:18;;;;;;;32.77;21.47;;;9.80;99.90;;;;;;5012744;28;20498;-71
2022/02/17 05:20:45;;;;;;;34.27;19.97;;;9.80;99.90;;;;;;5012154;28;20468;-73
2022/02/17 05:23:12;;;;;;;29.60;18.97;;;9.90;99.90;;;;;;5011438;28;20602;-70
2022/02/17 05:25:39;;;;;;;33.33;19.33;;;10.00;99.90;;;;;;5010040;28;21113;-70
2022/02/17 05:28:08;;;;;;;42.50;19.70;;;10.00;99.90;;;;;;5009705;28;20472;-71
2022/02/17 05:30:41;;;;;;;30.87;18.47;;;10.10;99.90;;;;;;5010334;28;20487;-70
2022/02/17 05:33:09;;;;;;;24.87;18.60;;;10.10;99.90;;;;;;5011761;28;20521;-71
2022/02/17 05:35:36;;;;;;;29.37;20.07;;;10.10;99.90;;;;;;5010933;28;20610;-71
2022/02/17 05:38:03;;;;;;;32.77;18.10;;;10.10;99.90;;;;;;5010968;28;20828;-70
2022/02/17 05:40:30;;;;;;;29.17;18.97;;;10.10;99.90;;;;;;5012558;28;20465;-70
2022/02/17 05:42:57;;;;;;;30.47;18.67;;;10.20;99.90;;;;;;5010809;28;20974;-70
2022/02/17 05:45:26;;;;;;;28.10;18.93;;;10.10;99.90;;;;;;5009486;28;20502;-71
2022/02/17 05:47:53;;;;;;;27.17;18.20;;;10.10;99.90;;;;;;5011000;28;20944;-71
2022/02/17 05:50:20;;;;;;;26.63;20.57;;;10.10;99.90;;;;;;5008797;28;20486;-71
2022/02/17 05:52:48;;;;;;;32.27;23.47;;;10.10;99.90;;;;;;5008466;28;20464;-71
2022/02/17 05:55:15;;;;;;;53.10;29.07;;;9.90;99.90;;;;;;5010429;28;20824;-71
2022/02/17 05:57:42;;;;;;;40.77;32.50;;;9.70;99.90;;;;;;5010041;28;20464;-74
2022/02/17 06:00:10;;;;;;;40.33;31.23;;;9.10;99.90;;;;;;5009530;28;21195;-71
2022/02/17 06:02:38;;;;;;;39.17;30.40;;;8.90;99.90;;;;;;5010739;28;20498;-72
2022/02/17 06:05:06;;;;;;;43.57;30.40;;;8.90;99.90;;;;;;5010672;28;20490;-71
2022/02/17 06:07:33;;;;;;;40.93;30.73;;;8.90;99.90;;;;;;5007922;28;20497;-71
2022/02/17 06:10:00;;;;;;;41.30;30.60;;;8.90;99.90;;;;;;5010211;28;20675;-72
2022/02/17 06:12:27;;;;;;;39.03;29.43;;;8.90;99.90;;;;;;5009645;28;20547;-72
2022/02/17 06:14:53;;;;;;;39.20;29.03;;;8.90;99.90;;;;;;5006224;28;21084;-72
2022/02/17 06:17:20;;;;;;;40.10;28.47;;;9.00;99.90;;;;;;5007816;28;20517;-71
2022/02/17 06:19:48;;;;;;;39.70;28.47;;;9.10;99.90;;;;;;5010245;28;20977;-72
2022/02/17 06:22:15;;;;;;;38.73;24.37;;;9.10;99.90;;;;;;5009339;28;20465;-72
2022/02/17 06:24:42;;;;;;;43.90;26.13;;;9.10;99.90;;;;;;5010411;28;20603;-71
2022/02/17 06:27:09;;;;;;;30.93;22.20;;;9.20;99.90;;;;;;5010823;28;21048;-70
2022/02/17 06:29:36;;;;;;;36.23;21.30;;;9.30;99.90;;;;;;5009185;28;21831;-71
2022/02/17 06:32:03;;;;;;;23.70;19.53;;;9.30;99.90;;;;;;5009735;28;20469;-71
2022/02/17 06:34:30;;;;;;;24.67;19.30;;;9.40;99.90;;;;;;5011163;28;20686;-71
2022/02/17 06:36:58;;;;;;;30.50;18.60;;;9.40;99.90;;;;;;5009516;28;20571;-71
2022/02/17 06:39:25;;;;;;;30.53;20.70;;;9.40;99.90;;;;;;5012371;28;20710;-69
2022/02/17 06:41:52;;;;;;;20.87;18.87;;;9.40;99.90;;;;;;5011847;28;20555;-70
2022/02/17 06:44:19;;;;;;;34.33;19.90;;;9.30;99.90;;;;;;5011239;28;20851;-73
2022/02/17 06:46:46;;;;;;;43.77;19.53;;;9.30;99.90;;;;;;5017919;28;20909;-72
2022/02/17 06:49:13;;;;;;;25.47;19.20;;;9.30;99.90;;;;;;5042427;28;20495;-70
2022/02/17 06:51:40;;;;;;;27.10;18.37;;;9.40;99.90;;;;;;5026646;28;20486;-71
2022/02/17 06:54:08;;;;;;;27.33;19.67;;;9.40;99.90;;;;;;5009158;28;20470;-70
2022/02/17 06:56:35;;;;;;;37.70;19.97;;;9.30;99.90;;;;;;5008607;28;21456;-70
2022/02/17 06:59:03;;;;;;;25.00;18.27;;;9.50;99.90;;;;;;5009904;28;21037;-70
2022/02/17 07:01:30;;;;;;;24.70;18.63;;;9.60;99.90;;;;;;5010212;28;20451;-71
2022/02/17 07:03:57;;;;;;;33.90;20.40;;;9.60;99.90;;;;;;5010227;28;20534;-70
2022/02/17 07:06:24;;;;;;;33.10;18.50;;;9.60;99.90;;;;;;5009148;28;21011;-71
2022/02/17 07:08:51;;;;;;;31.10;19.53;;;9.60;99.90;;;;;;5009233;28;21039;-72
2022/02/17 07:11:19;;;;;;;25.77;19.00;;;9.60;99.90;;;;;;5018805;28;21056;-70
2022/02/17 07:13:48;;;;;;;38.50;19.27;;;9.60;99.90;;;;;;5034048;28;20501;-70
2022/02/17 07:16:15;;;;;;;22.67;19.70;;;9.70;99.90;;;;;;5030064;28;20562;-71
2022/02/17 07:18:44;;;;;;;43.63;20.53;;;9.80;99.90;;;;;;5009209;28;21276;-71
2022/02/17 07:21:12;;;;;;;29.93;19.70;;;9.80;99.90;;;;;;5009016;28;20487;-71
2022/02/17 07:23:40;;;;;;;35.47;20.40;;;9.70;99.90;;;;;;5008896;28;20462;-71
2022/02/17 07:26:07;;;;;;;29.10;18.67;;;9.80;99.90;;;;;;5007908;28;20583;-72
2022/02/17 07:28:36;;;;;;;22.53;18.27;;;9.70;99.90;;;;;;5009929;28;20519;-71
2022/02/17 07:31:02;;;;;;;25.50;18.27;;;9.70;99.90;;;;;;5009751;28;20480;-69
2022/02/17 07:33:30;;;;;;;20.10;18.10;;;9.70;99.90;;;;;;5008642;28;20473;-72
2022/02/17 07:35:57;;;;;;;23.10;18.27;;;9.60;99.90;;;;;;5008311;28;20559;-71
2022/02/17 07:38:24;;;;;;;20.27;18.30;;;9.60;99.90;;;;;;5009460;28;21898;-71
2022/02/17 07:40:51;;;;;;;20.60;17.50;;;9.70;99.90;;;;;;5008239;28;21146;-72
2022/02/17 07:43:18;;;;;;;24.97;18.20;;;9.70;99.90;;;;;;5008662;28;20468;-71
2022/02/17 07:45:46;;;;;;;21.23;18.20;;;9.70;99.90;;;;;;5007363;28;20626;-73
2022/02/17 07:48:13;;;;;;;24.00;17.27;;;9.80;99.90;;;;;;5009965;28;21318;-70
2022/02/17 07:50:40;;;;;;;24.10;18.30;;;9.80;99.90;;;;;;5008633;28;20956;-69
2022/02/17 07:53:07;;;;;;;24.50;19.10;;;9.90;99.90;;;;;;5009796;28;20459;-73
2022/02/17 07:55:34;;;;;;;44.07;19.53;;;9.90;99.90;;;;;;5008116;28;20504;-71
2022/02/17 07:58:05;;;;;;;27.20;21.23;;;10.00;99.90;;;;;;5007700;28;20475;-70
2022/02/17 08:00:33;;;;;;;35.00;19.67;;;9.90;99.90;;;;;;5004228;28;20487;-71
2022/02/17 08:03:01;;;;;;;23.47;18.97;;;10.00;99.90;;;;;;5008572;28;20890;-70
2022/02/17 08:05:28;;;;;;;30.40;19.87;;;10.10;99.90;;;;;;5007635;28;20861;-70
2022/02/17 08:07:55;;;;;;;32.17;19.00;;;10.20;99.90;;;;;;5006367;28;20475;-71
2022/02/17 08:10:23;;;;;;;33.97;19.43;;;10.20;99.90;;;;;;5008374;28;21024;-71
2022/02/17 08:12:50;;;;;;;28.30;18.80;;;10.10;99.90;;;;;;5008201;28;21196;-72
2022/02/17 08:15:16;;;;;;;29.10;19.00;;;10.10;99.90;;;;;;5007659;28;21229;-70
2022/02/17 08:17:43;;;;;;;33.83;20.33;;;10.00;99.90;;;;;;5007126;28;20509;-71
2022/02/17 08:20:13;;;;;;;46.13;20.40;;;10.10;99.90;;;;;;5006983;28;20447;-73
2022/02/17 08:22:48;;;;;;;31.80;20.00;;;10.00;99.90;;;;;;5007760;28;20569;-71
2022/02/17 08:25:15;;;;;;;35.77;20.83;;;10.20;99.90;;;;;;5007378;28;21590;-71
2022/02/17 08:27:42;;;;;;;36.60;21.37;;;10.20;99.90;;;;;;5007463;28;20498;-72
2022/02/17 08:30:10;;;;;;;32.93;19.67;;;10.20;99.90;;;;;;5008983;28;21142;-71
2022/02/17 08:32:37;;;;;;;37.23;20.10;;;10.20;99.90;;;;;;5020954;28;20839;-71
2022/02/17 08:35:07;;;;;;;38.17;18.90;;;10.30;99.90;;;;;;5035840;28;20475;-71
2022/02/17 08:37:35;;;;;;;27.07;18.90;;;10.30;99.90;;;;;;5007068;28;20887;-72
2022/02/17 08:40:02;;;;;;;34.57;18.37;;;10.30;99.90;;;;;;5011547;28;20550;-70
2022/02/17 08:42:29;;;;;;;21.50;18.80;;;10.30;99.90;;;;;;5012108;28;20475;-72
2022/02/17 08:44:56;;;;;;;32.63;18.30;;;10.30;99.90;;;;;;5010130;28;20494;-70
2022/02/17 08:47:22;;;;;;;24.43;17.67;;;10.30;99.90;;;;;;5009728;28;20483;-70
2022/02/17 08:49:49;;;;;;;33.83;19.40;;;10.40;99.90;;;;;;5020652;28;20474;-70
2022/02/17 08:52:16;;;;;;;43.13;21.03;;;10.40;99.90;;;;;;5037637;28;20550;-71
2022/02/17 08:54:45;;;;;;;29.80;18.97;;;10.50;99.90;;;;;;5015536;28;20553;-71
2022/02/17 08:57:11;;;;;;;26.10;17.90;;;10.40;99.90;;;;;;5007294;28;20464;-70
2022/02/17 08:59:38;;;;;;;34.10;19.00;;;10.40;99.90;;;;;;5007121;28;20465;-70
2022/02/17 09:02:05;;;;;;;24.20;17.83;;;10.30;99.90;;;;;;5006602;28;21516;-72
2022/02/17 09:04:32;;;;;;;31.17;18.20;;;10.30;99.90;;;;;;5006871;28;20465;-70
2022/02/17 09:07:00;;;;;;;21.43;19.20;;;10.20;99.90;;;;;;5006784;28;20456;-70
2022/02/17 09:09:27;;;;;;;31.00;17.23;;;10.30;99.90;;;;;;5005459;28;21237;-72
2022/02/17 09:11:55;;;;;;;26.47;18.37;;;10.30;99.90;;;;;;5006032;28;20456;-72
2022/02/17 09:14:22;;;;;;;26.50;17.40;;;10.40;99.90;;;;;;5005386;28;21145;-71
2022/02/17 09:16:50;;;;;;;25.07;18.53;;;10.40;99.90;;;;;;5005809;28;20496;-71
2022/02/17 09:19:17;;;;;;;29.53;19.13;;;10.30;99.90;;;;;;5005427;28;20563;-71
2022/02/17 09:21:44;;;;;;;20.17;17.70;;;10.30;99.90;;;;;;5004470;28;20456;-70
2022/02/17 09:24:11;;;;;;;31.90;18.93;;;10.40;99.90;;;;;;5003629;28;20467;-71
2022/02/17 09:26:38;;;;;;;21.80;18.30;;;10.50;99.90;;;;;;5003802;28;20512;-70
2022/02/17 09:29:08;;;;;;;20.50;18.40;;;10.60;99.90;;;;;;5003885;28;20462;-70
2022/02/17 09:31:35;;;;;;;27.80;18.27;;;10.60;99.90;;;;;;5002845;28;20465;-71
2022/02/17 09:34:02;;;;;;;26.13;19.33;;;10.60;99.90;;;;;;5004253;28;20474;-70
2022/02/17 09:36:28;;;;;;;19.87;17.30;;;10.80;99.90;;;;;;5005179;28;21226;-70
2022/02/17 09:38:56;;;;;;;26.87;18.40;;;10.90;99.90;;;;;;5004077;28;20474;-72
2022/02/17 09:41:24;;;;;;;25.03;18.00;;;10.90;99.90;;;;;;5005728;28;20456;-72
2022/02/17 09:43:52;;;;;;;21.07;19.07;;;10.80;99.90;;;;;;5005254;28;20953;-73
2022/02/17 09:46:22;;;;;;;19.20;17.60;;;10.70;99.90;;;;;;5004790;28;20496;-71
2022/02/17 09:48:55;;;;;;;20.03;18.10;;;10.80;99.90;;;;;;5005888;28;20471;-71
2022/02/17 09:51:23;;;;;;;20.03;18.00;;;10.80;99.90;;;;;;5005547;28;20468;-70
2022/02/17 09:53:50;;;;;;;20.77;18.50;;;10.80;99.90;;;;;;5005082;28;20477;-70
2022/02/17 09:56:17;;;;;;;23.03;17.93;;;11.00;99.90;;;;;;5005807;28;20456;-71
2022/02/17 09:58:44;;;;;;;27.97;18.90;;;11.10;99.90;;;;;;5005003;28;20476;-71
2022/02/17 10:01:17;;;;;;;24.80;18.13;;;11.20;99.90;;;;;;5005305;28;20558;-71
2022/02/17 10:03:45;;;;;;;20.17;18.03;;;11.30;99.90;;;;;;5004891;28;20460;-71
2022/02/17 10:06:14;;;;;;;23.87;18.60;;;11.40;99.90;;;;;;5004244;28;21336;-70
2022/02/17 10:08:41;;;;;;;20.40;18.40;;;11.50;99.90;;;;;;5004237;28;20967;-73
2022/02/17 10:11:10;;;;;;;23.30;18.67;;;11.50;99.90;;;;;;5004612;28;20488;-72
2022/02/17 10:13:37;;;;;;;23.93;18.90;;;11.40;99.90;;;;;;5003814;28;20472;-71
2022/02/17 10:16:04;;;;;;;19.33;17.63;;;11.30;99.90;;;;;;5034108;28;20924;-73
2022/02/17 10:18:39;;;;;;;24.57;17.70;;;11.20;99.90;;;;;;5036126;28;20490;-72
2022/02/17 10:21:12;;;;;;;20.33;18.20;;;11.20;99.90;;;;;;5034990;28;20467;-70
2022/02/17 10:23:43;;;;;;;20.50;18.43;;;11.20;99.90;;;;;;5035702;28;20574;-70
2022/02/17 10:26:12;;;;;;;23.07;18.90;;;11.20;99.90;;;;;;5004982;28;20488;-70
2022/02/17 10:28:41;;;;;;;19.57;17.87;;;11.10;99.90;;;;;;5028729;28;20468;-71
2022/02/17 10:31:09;;;;;;;19.63;17.70;;;11.20;99.90;;;;;;5038815;28;20463;-71
2022/02/17 10:33:44;;;;;;;24.97;17.77;;;11.50;99.90;;;;;;5035741;28;20463;-72
2022/02/17 10:36:13;;;;;;;25.03;18.03;;;11.90;99.90;;;;;;5034654;28;20495;-70
2022/02/17 10:38:41;;;;;;;26.17;18.23;;;11.90;99.90;;;;;;5033613;28;20462;-72
2022/02/17 10:41:08;;;;;;;20.07;17.43;;;12.10;99.90;;;;;;5016628;28;20476;-72
2022/02/17 10:43:35;;;;;;;21.03;18.83;;;12.30;99.90;;;;;;5005559;28;20559;-71
2022/02/17 10:46:09;;;;;;;18.40;16.73;;;12.20;99.90;;;;;;5004525;28;20581;-71
2022/02/17 10:48:36;;;;;;;18.80;17.30;;;12.50;99.90;;;;;;5004884;28;21077;-72
2022/02/17 10:51:06;;;;;;;18.47;16.93;;;12.50;99.90;;;;;;5004532;28;20551;-71
2022/02/17 10:53:40;;;;;;;19.70;18.10;;;12.30;99.90;;;;;;5004890;28;20473;-72
2022/02/17 10:56:08;;;;;;;19.20;17.57;;;11.70;99.90;;;;;;5005137;28;20865;-71
2022/02/17 10:58:38;;;;;;;18.90;17.47;;;11.50;99.90;;;;;;5004028;28;20467;-72
2022/02/17 11:01:07;;;;;;;18.33;17.03;;;11.10;99.90;;;;;;5003976;28;20471;-70
2022/02/17 11:03:36;;;;;;;21.63;18.23;;;10.90;99.90;;;;;;5004138;28;20479;-70
2022/02/17 11:06:05;;;;;;;17.43;16.33;;;11.00;99.90;;;;;;5003499;28;20563;-71
2022/02/17 11:08:33;;;;;;;18.47;17.10;;;10.80;99.90;;;;;;5003807;28;20566;-71
2022/02/17 11:11:00;;;;;;;18.57;17.23;;;10.60;99.90;;;;;;5006056;28;20457;-72
2022/02/17 11:13:30;;;;;;;19.53;17.53;;;10.50;99.90;;;;;;5005778;28;21231;-70
2022/02/17 11:15:59;;;;;;;18.40;16.77;;;10.60;99.90;;;;;;5011675;28;20590;-69
2022/02/17 11:18:27;;;;;;;23.40;17.80;;;10.90;99.90;;;;;;5013927;28;20484;-72
2022/02/17 11:20:54;;;;;;;19.33;17.53;;;11.30;99.90;;;;;;5006267;28;20455;-69
2022/02/17 11:23:28;;;;;;;18.87;17.17;;;11.30;99.90;;;;;;5005681;28;20471;-72
2022/02/17 11:25:56;;;;;;;17.87;16.40;;;11.00;99.90;;;;;;5003979;28;20746;-70
2022/02/17 11:28:33;;;;;;;24.77;16.90;;;11.10;99.90;;;;;;5005379;28;20460;-69
2022/02/17 11:31:02;;;;;;;19.03;17.23;;;11.60;99.90;;;;;;5005116;28;20472;-70
2022/02/17 11:33:30;;;;;;;19.10;17.47;;;11.90;99.90;;;;;;5005273;28;20499;-70
2022/02/17 11:35:59;;;;;;;17.13;16.00;;;11.70;99.90;;;;;;5003981;28;20456;-71
2022/02/17 11:38:32;;;;;;;18.00;16.47;;;11.70;99.90;;;;;;5001967;28;21010;-72
2022/02/17 11:41:09;;;;;;;18.57;16.97;;;12.00;99.90;;;;;;5001788;28;20817;-69
2022/02/17 11:43:37;;;;;;;17.30;16.30;;;11.80;99.90;;;;;;5003204;28;20471;-72
2022/02/17 11:46:04;;;;;;;18.60;16.77;;;11.90;99.90;;;;;;5002885;28;20488;-69
2022/02/17 11:48:37;;;;;;;17.87;16.43;;;11.60;99.90;;;;;;5002872;28;20472;-69
2022/02/17 11:51:17;;;;;;;18.43;16.97;;;11.70;99.90;;;;;;5003941;28;20480;-70
2022/02/17 11:53:45;;;;;;;17.90;16.80;;;11.30;99.90;;;;;;5003306;28;20482;-69
2022/02/17 11:56:36;;;;;;;23.00;17.10;;;11.20;99.90;;;;;;5003811;28;21049;-71
2022/02/17 11:59:22;;;;;;;17.93;16.70;;;10.90;99.90;;;;;;5004178;28;20473;-69
2022/02/17 12:01:50;;;;;;;18.57;17.03;;;10.80;99.90;;;;;;5003192;28;20487;-71
2022/02/17 12:04:19;;;;;;;18.63;17.20;;;10.70;99.90;;;;;;5003172;28;20466;-70
2022/02/17 12:06:49;;;;;;;18.70;17.50;;;10.90;99.90;;;;;;5003333;28;20503;-69
2022/02/17 12:09:39;;;;;;;19.37;17.83;;;11.30;99.90;;;;;;5003231;28;20914;-69
2022/02/17 12:12:38;;;;;;;17.73;16.53;;;11.10;99.90;;;;;;4998876;28;20468;-70
2022/02/17 12:15:13;;;;;;;17.63;16.43;;;11.90;99.90;;;;;;5002637;28;20460;-70
2022/02/17 12:17:44;;;;;;;18.00;16.67;;;12.40;99.90;;;;;;5003142;28;20492;-71
2022/02/17 12:20:13;;;;;;;17.80;16.80;;;12.20;99.90;;;;;;5003470;28;20459;-69
2022/02/17 12:22:49;;;;;;;17.73;16.50;;;12.00;99.90;;;;;;5003111;28;20519;-69
2022/02/17 12:25:20;;;;;;;17.97;16.50;;;11.80;99.90;;;;;;5003593;28;20484;-71
2022/02/17 12:27:50;;;;;;;18.67;17.17;;;11.90;99.90;;;;;;5002667;28;20504;-69
2022/02/17 12:30:38;;;;;;;18.50;16.80;;;12.00;99.90;;;;;;5002372;28;20515;-71
2022/02/17 12:33:08;;;;;;;17.77;16.50;;;12.50;99.90;;;;;;4998231;28;20508;-69
2022/02/17 12:35:36;;;;;;;17.00;15.70;;;12.50;99.90;;;;;;5003656;28;20849;-69